createdAt,value
2016-05-25T00:00:56.438Z,992.27
2016-05-25T00:01:56.441Z,992.27
2016-05-25T00:02:56.443Z,992.28
2016-05-25T00:05:56.467Z,992.25
2016-05-25T00:07:56.504Z,992.27
2016-05-25T00:08:56.522Z,992.26
2016-05-25T00:09:56.510Z,992.26
2016-05-25T00:10:56.496Z,992.26
2016-05-25T00:11:56.718Z,992.29
2016-05-25T00:12:56.532Z,992.29
2016-05-25T00:13:56.504Z,992.31
2016-05-25T00:14:56.710Z,992.28
2016-05-25T00:15:56.509Z,992.31
2016-05-25T00:16:56.529Z,992.33
2016-05-25T00:17:56.531Z,992.31
2016-05-25T00:18:56.534Z,992.33
2016-05-25T00:19:56.536Z,992.35
2016-05-25T00:20:56.554Z,992.36
2016-05-25T00:21:56.557Z,992.36
2016-05-25T00:22:56.559Z,992.33
2016-05-25T00:23:56.593Z,992.33
2016-05-25T00:24:56.581Z,992.32
2016-05-25T00:25:56.584Z,992.31
2016-05-25T00:26:56.586Z,992.3
2016-05-25T00:27:56.589Z,992.29
2016-05-25T00:28:56.592Z,992.28
2016-05-25T00:29:56.610Z,992.26
2016-05-25T00:30:56.628Z,992.32
2016-05-25T00:31:56.615Z,992.31
2016-05-25T00:32:56.633Z,992.29
2016-05-25T00:33:56.620Z,992.25
2016-05-25T00:34:56.639Z,992.26
2016-05-25T00:35:56.641Z,992.27
2016-05-25T00:36:56.644Z,992.25
2016-05-25T00:37:56.662Z,992.26
2016-05-25T00:38:56.666Z,992.31
2016-05-25T00:39:56.669Z,992.31
2016-05-25T00:40:56.671Z,992.28
2016-05-25T00:41:56.689Z,992.29
2016-05-25T00:42:56.691Z,992.28
2016-05-25T00:43:56.710Z,992.32
2016-05-25T00:44:56.696Z,992.31
2016-05-25T00:45:56.715Z,992.33
2016-05-25T00:46:56.718Z,992.31
2016-05-25T00:47:56.924Z,992.32
2016-05-25T00:48:56.724Z,992.31
2016-05-25T00:49:56.742Z,992.32
2016-05-25T00:50:56.760Z,992.33
2016-05-25T00:51:56.762Z,992.3
2016-05-25T00:52:56.781Z,992.31
2016-05-25T00:53:57.003Z,992.28
2016-05-25T00:54:56.989Z,992.26
2016-05-25T00:55:56.977Z,992.24
2016-05-25T00:56:56.807Z,992.24
2016-05-25T00:57:56.981Z,992.24
2016-05-25T00:58:57.000Z,992.25
2016-05-25T00:59:56.815Z,992.24
2016-05-25T01:00:56.803Z,992.2
2016-05-25T01:01:56.852Z,992.24
2016-05-25T01:02:56.808Z,992.2
2016-05-25T01:03:56.826Z,992.21
2016-05-25T01:04:56.828Z,992.22
2016-05-25T01:05:56.831Z,992.18
2016-05-25T01:06:56.833Z,992.19
2016-05-25T01:07:56.852Z,992.22
2016-05-25T01:08:56.855Z,992.23
2016-05-25T01:09:56.858Z,992.21
2016-05-25T01:10:56.861Z,992.2
2016-05-25T01:11:56.879Z,992.22
2016-05-25T01:12:56.882Z,992.24
2016-05-25T01:13:56.899Z,992.25
2016-05-25T01:14:56.887Z,992.24
2016-05-25T01:15:56.905Z,992.24
2016-05-25T01:16:56.907Z,992.24
2016-05-25T01:17:56.910Z,992.26
2016-05-25T01:18:56.913Z,992.22
2016-05-25T01:19:56.916Z,992.19
2016-05-25T01:20:56.918Z,992.21
2016-05-25T01:21:56.937Z,992.16
2016-05-25T01:22:56.940Z,992.17
2016-05-25T01:23:56.958Z,992.19
2016-05-25T01:24:56.992Z,992.17
2016-05-25T01:25:56.964Z,992.18
2016-05-25T01:26:56.966Z,992.2
2016-05-25T01:27:57.001Z,992.18
2016-05-25T01:28:56.987Z,992.21
2016-05-25T01:29:56.990Z,992.19
2016-05-25T01:30:56.992Z,992.23
2016-05-25T01:31:56.995Z,992.2
2016-05-25T01:32:57.014Z,992.18
2016-05-25T01:33:57.016Z,992.18
2016-05-25T01:34:57.034Z,992.19
2016-05-25T01:35:57.241Z,992.2
2016-05-25T01:36:57.039Z,992.17
2016-05-25T01:37:57.058Z,992.2
2016-05-25T01:39:57.047Z,992.23
2016-05-25T01:40:57.083Z,992.22
2016-05-25T01:41:57.053Z,992.24
2016-05-25T01:42:57.072Z,992.22
2016-05-25T01:43:57.105Z,992.2
2016-05-25T01:44:57.296Z,992.14
2016-05-25T01:45:57.299Z,992.19
2016-05-25T01:46:57.098Z,992.15
2016-05-25T01:47:57.116Z,992.13
2016-05-25T01:48:57.119Z,992.12
2016-05-25T01:49:57.325Z,992.17
2016-05-25T01:50:57.327Z,992.14
2016-05-25T01:51:57.329Z,992.15
2016-05-25T01:52:57.130Z,992.13
2016-05-25T01:53:57.132Z,992.14
2016-05-25T01:54:57.151Z,992.12
2016-05-25T01:55:57.153Z,992.16
2016-05-25T01:56:57.156Z,992.17
2016-05-25T01:57:57.159Z,992.18
2016-05-25T01:58:57.177Z,992.2
2016-05-25T01:59:57.180Z,992.2
2016-05-25T02:00:57.198Z,992.21
2016-05-25T02:01:57.389Z,992.21
2016-05-25T02:02:57.204Z,992.23
2016-05-25T02:03:57.206Z,992.23
2016-05-25T02:04:57.209Z,992.24
2016-05-25T02:05:57.211Z,992.23
2016-05-25T02:06:57.230Z,992.22
2016-05-25T02:07:57.233Z,992.21
2016-05-25T02:08:57.235Z,992.26
2016-05-25T02:09:57.253Z,992.25
2016-05-25T02:10:57.256Z,992.29
2016-05-25T02:11:57.259Z,992.28
2016-05-25T02:12:57.262Z,992.26
2016-05-25T02:13:57.264Z,992.27
2016-05-25T02:14:57.283Z,992.29
2016-05-25T02:15:57.285Z,992.22
2016-05-25T02:16:57.288Z,992.26
2016-05-25T02:17:57.306Z,992.25
2016-05-25T02:18:57.293Z,992.23
2016-05-25T02:19:57.312Z,992.23
2016-05-25T02:20:57.315Z,992.22
2016-05-25T02:22:57.320Z,992.22
2016-05-25T02:23:57.323Z,992.28
2016-05-25T02:24:57.357Z,992.24
2016-05-25T02:25:57.375Z,992.27
2016-05-25T02:26:57.378Z,992.27
2016-05-25T02:27:57.348Z,992.27
2016-05-25T02:28:57.351Z,992.29
2016-05-25T02:29:57.369Z,992.26
2016-05-25T02:30:57.372Z,992.23
2016-05-25T02:31:57.875Z,992.24
2016-05-25T02:32:57.378Z,992.22
2016-05-25T02:33:57.397Z,992.24
2016-05-25T02:34:57.400Z,992.21
2016-05-25T02:35:57.417Z,992.23
2016-05-25T02:36:57.420Z,992.2
2016-05-25T02:37:57.422Z,992.21
2016-05-25T02:38:57.425Z,992.2
2016-05-25T02:39:57.443Z,992.24
2016-05-25T02:40:57.447Z,992.23
2016-05-25T02:41:57.668Z,992.24
2016-05-25T02:42:57.655Z,992.28
2016-05-25T02:43:57.470Z,992.27
2016-05-25T02:44:57.488Z,992.24
2016-05-25T02:46:58.135Z,992.24
2016-05-25T02:47:57.512Z,992.25
2016-05-25T02:48:57.483Z,992.27
2016-05-25T02:49:57.501Z,992.26
2016-05-25T02:50:57.504Z,992.22
2016-05-25T02:51:57.508Z,992.26
2016-05-25T02:52:57.525Z,992.25
2016-05-25T02:53:57.560Z,992.22
2016-05-25T02:54:57.531Z,992.3
2016-05-25T02:55:57.534Z,992.28
2016-05-25T02:56:57.537Z,992.26
2016-05-25T02:57:57.742Z,992.26
2016-05-25T02:58:57.557Z,992.28
2016-05-25T02:59:57.559Z,992.28
2016-05-25T03:00:57.562Z,992.25
2016-05-25T03:04:57.605Z,992.24
2016-05-25T03:05:58.169Z,992.28
2016-05-25T03:06:57.829Z,992.29
2016-05-25T03:07:57.628Z,992.24
2016-05-25T03:08:57.631Z,992.31
2016-05-25T03:09:57.852Z,992.25
2016-05-25T03:10:57.855Z,992.26
2016-05-25T03:11:57.623Z,992.3
2016-05-25T03:12:57.830Z,992.28
2016-05-25T03:13:57.644Z,992.26
2016-05-25T03:14:57.647Z,992.29
2016-05-25T03:15:57.649Z,992.27
2016-05-25T03:16:57.652Z,992.25
2016-05-25T03:17:57.671Z,992.25
2016-05-25T03:18:57.674Z,992.24
2016-05-25T03:19:57.676Z,992.25
2016-05-25T03:20:57.679Z,992.23
2016-05-25T03:21:57.697Z,992.23
2016-05-25T03:22:57.700Z,992.23
2016-05-25T03:23:57.702Z,992.26
2016-05-25T03:24:57.705Z,992.24
2016-05-25T03:25:57.724Z,992.23
2016-05-25T03:26:57.727Z,992.23
2016-05-25T03:27:57.729Z,992.27
2016-05-25T03:28:57.732Z,992.28
2016-05-25T03:29:57.734Z,992.3
2016-05-25T03:30:57.737Z,992.29
2016-05-25T03:31:57.756Z,992.31
2016-05-25T03:32:57.758Z,992.3
2016-05-25T03:33:57.761Z,992.33
2016-05-25T03:34:57.779Z,992.33
2016-05-25T03:35:57.781Z,992.35
2016-05-25T03:36:57.784Z,992.35
2016-05-25T03:37:57.803Z,992.41
2016-05-25T03:38:58.008Z,992.36
2016-05-25T03:39:57.792Z,992.4
2016-05-25T03:40:57.811Z,992.32
2016-05-25T03:41:57.813Z,992.35
2016-05-25T03:42:57.832Z,992.34
2016-05-25T03:43:57.835Z,992.34
2016-05-25T03:44:57.837Z,992.34
2016-05-25T03:45:57.855Z,992.31
2016-05-25T03:46:58.358Z,992.35
2016-05-25T03:47:58.080Z,992.33
2016-05-25T03:48:58.083Z,992.36
2016-05-25T03:49:58.085Z,992.35
2016-05-25T03:50:57.869Z,992.38
2016-05-25T03:51:57.887Z,992.36
2016-05-25T03:52:57.890Z,992.38
2016-05-25T03:53:57.893Z,992.37
2016-05-25T03:54:57.895Z,992.37
2016-05-25T03:55:57.914Z,992.38
2016-05-25T03:56:57.916Z,992.35
2016-05-25T03:57:58.107Z,992.38
2016-05-25T03:58:57.907Z,992.37
2016-05-25T03:59:58.160Z,992.36
2016-05-25T04:00:58.131Z,992.39
2016-05-25T04:01:57.961Z,992.35
2016-05-25T04:02:58.168Z,992.36
2016-05-25T04:03:57.935Z,992.35
2016-05-25T04:05:57.957Z,992.38
2016-05-25T04:06:57.959Z,992.42
2016-05-25T04:07:57.992Z,992.45
2016-05-25T04:08:58.012Z,992.48
2016-05-25T04:09:58.014Z,992.47
2016-05-25T04:10:58.017Z,992.49
2016-05-25T04:11:58.019Z,992.47
2016-05-25T04:12:58.006Z,992.5
2016-05-25T04:13:58.009Z,992.5
2016-05-25T04:14:58.028Z,992.51
2016-05-25T04:15:58.030Z,992.52
2016-05-25T04:16:58.033Z,992.52
2016-05-25T04:17:58.066Z,992.49
2016-05-25T04:19:58.095Z,992.55
2016-05-25T04:20:58.122Z,992.58
2016-05-25T04:21:58.117Z,992.56
2016-05-25T04:22:58.394Z,992.58
2016-05-25T04:23:58.420Z,992.6
2016-05-25T04:24:58.400Z,992.59
2016-05-25T04:25:58.412Z,992.62
2016-05-25T04:26:58.235Z,992.64
2016-05-25T04:27:58.246Z,992.66
2016-05-25T04:28:58.476Z,992.65
2016-05-25T04:29:58.279Z,992.59
2016-05-25T04:30:58.285Z,992.64
2016-05-25T04:31:58.494Z,992.59
2016-05-25T04:32:58.296Z,992.61
2016-05-25T04:33:58.333Z,992.61
2016-05-25T04:34:58.353Z,992.63
2016-05-25T04:35:58.324Z,992.6
2016-05-25T04:36:58.361Z,992.59
2016-05-25T04:37:58.332Z,992.57
2016-05-25T04:38:58.337Z,992.62
2016-05-25T04:39:58.356Z,992.62
2016-05-25T04:40:58.358Z,992.61
2016-05-25T04:41:58.378Z,992.62
2016-05-25T04:42:58.615Z,992.63
2016-05-25T04:43:58.398Z,992.67
2016-05-25T04:44:58.387Z,992.66
2016-05-25T04:45:58.389Z,992.63
2016-05-25T04:46:58.423Z,992.7
2016-05-25T04:47:58.410Z,992.67
2016-05-25T04:48:58.412Z,992.68
2016-05-25T04:49:58.431Z,992.71
2016-05-25T04:50:58.434Z,992.71
2016-05-25T04:51:58.452Z,992.75
2016-05-25T04:54:58.476Z,992.75
2016-05-25T04:55:58.463Z,992.75
2016-05-25T04:56:58.465Z,992.77
2016-05-25T04:57:58.686Z,992.77
2016-05-25T04:58:58.705Z,992.83
2016-05-25T04:59:58.505Z,992.83
2016-05-25T05:00:58.508Z,992.84
2016-05-25T05:01:58.494Z,992.82
2016-05-25T05:02:58.497Z,992.89
2016-05-25T05:03:58.531Z,992.88
2016-05-25T05:04:58.752Z,992.91
2016-05-25T05:05:58.521Z,992.89
2016-05-25T05:06:58.757Z,992.92
2016-05-25T05:07:58.526Z,992.93
2016-05-25T05:08:58.732Z,992.9
2016-05-25T05:09:58.546Z,992.87
2016-05-25T05:10:58.565Z,992.87
2016-05-25T05:11:58.552Z,992.92
2016-05-25T05:12:58.555Z,992.9
2016-05-25T05:13:58.573Z,992.94
2016-05-25T05:14:58.576Z,992.9
2016-05-25T05:15:58.579Z,992.88
2016-05-25T05:16:58.863Z,992.9
2016-05-25T05:17:58.600Z,992.91
2016-05-25T05:18:58.603Z,992.91
2016-05-25T05:19:58.605Z,992.89
2016-05-25T05:20:58.827Z,992.86
2016-05-25T05:21:58.814Z,992.93
2016-05-25T05:22:59.020Z,992.91
2016-05-25T05:23:58.631Z,992.95
2016-05-25T05:24:58.853Z,993
2016-05-25T05:25:58.637Z,992.99
2016-05-25T05:26:58.656Z,992.97
2016-05-25T05:27:58.658Z,993.02
2016-05-25T05:28:58.661Z,992.97
2016-05-25T05:29:58.866Z,993.02
2016-05-25T05:30:58.869Z,993.03
2016-05-25T05:31:58.919Z,992.97
2016-05-25T05:32:58.688Z,992.97
2016-05-25T05:33:58.705Z,992.97
2016-05-25T05:34:58.693Z,992.94
2016-05-25T05:36:58.714Z,993.03
2016-05-25T05:37:58.716Z,993.05
2016-05-25T05:38:58.735Z,993.06
2016-05-25T05:39:58.737Z,993.04
2016-05-25T05:40:58.771Z,993.03
2016-05-25T05:41:58.758Z,993.05
2016-05-25T05:42:58.760Z,993.01
2016-05-25T05:43:58.763Z,993.06
2016-05-25T05:44:58.781Z,993.11
2016-05-25T05:45:59.691Z,993.11
2016-05-25T05:46:58.787Z,993.11
2016-05-25T05:47:58.806Z,993.14
2016-05-25T05:48:58.824Z,993.21
2016-05-25T05:49:58.811Z,993.17
2016-05-25T05:51:58.832Z,993.19
2016-05-25T05:52:58.850Z,993.21
2016-05-25T05:54:58.839Z,993.22
2016-05-25T05:56:00.781Z,993.25
2016-05-25T05:56:58.877Z,993.22
2016-05-25T05:57:59.098Z,993.3
2016-05-25T05:58:58.883Z,993.26
2016-05-25T05:59:58.900Z,993.29
2016-05-25T06:01:00.403Z,993.3
2016-05-25T06:01:58.905Z,993.32
2016-05-25T06:02:59.127Z,993.37
2016-05-25T06:03:58.927Z,993.32
2016-05-25T06:04:58.913Z,993.33
2016-05-25T06:06:01.119Z,993.35
2016-05-25T06:06:58.919Z,993.37
2016-05-25T06:07:58.921Z,993.37
2016-05-25T06:08:58.941Z,993.42
2016-05-25T06:09:58.943Z,993.39
2016-05-25T06:10:58.961Z,993.38
2016-05-25T06:11:59.168Z,993.42
2016-05-25T06:12:58.966Z,993.37
2016-05-25T06:13:58.969Z,993.37
2016-05-25T06:14:59.175Z,993.42
2016-05-25T06:15:59.178Z,993.42
2016-05-25T06:16:59.196Z,993.4
2016-05-25T06:17:58.995Z,993.39
2016-05-25T06:18:58.999Z,993.44
2016-05-25T06:19:59.017Z,993.42
2016-05-25T06:20:59.019Z,993.44
2016-05-25T06:21:59.226Z,993.45
2016-05-25T06:22:59.025Z,993.46
2016-05-25T06:23:59.043Z,993.48
2016-05-25T06:24:59.046Z,993.48
2016-05-25T06:25:59.048Z,993.45
2016-05-25T06:26:59.051Z,993.49
2016-05-25T06:27:59.053Z,993.51
2016-05-25T06:28:59.088Z,993.52
2016-05-25T06:29:59.074Z,993.51
2016-05-25T06:30:59.108Z,993.5
2016-05-25T06:31:59.096Z,993.52
2016-05-25T06:32:59.099Z,993.5
2016-05-25T06:33:59.117Z,993.55
2016-05-25T06:34:59.120Z,993.52
2016-05-25T06:35:59.122Z,993.5
2016-05-25T06:36:59.125Z,993.51
2016-05-25T06:37:59.144Z,993.52
2016-05-25T06:38:59.161Z,993.53
2016-05-25T06:39:59.164Z,993.54
2016-05-25T06:40:59.166Z,993.57
2016-05-25T06:41:59.170Z,993.56
2016-05-25T06:42:59.172Z,993.54
2016-05-25T06:43:59.175Z,993.57
2016-05-25T06:44:59.193Z,993.56
2016-05-25T06:45:59.196Z,993.53
2016-05-25T06:46:59.198Z,993.46
2016-05-25T06:47:59.420Z,993.52
2016-05-25T06:48:59.220Z,993.61
2016-05-25T06:49:59.237Z,993.62
2016-05-25T06:50:59.241Z,993.61
2016-05-25T06:51:59.243Z,993.62
2016-05-25T06:52:59.245Z,993.67
2016-05-25T06:53:59.265Z,993.63
2016-05-25T06:54:59.267Z,993.65
2016-05-25T06:55:59.270Z,993.65
2016-05-25T06:56:59.289Z,993.6
2016-05-25T06:57:59.291Z,993.66
2016-05-25T06:58:59.294Z,993.64
2016-05-25T06:59:59.296Z,993.66
2016-05-25T07:00:59.314Z,993.64
2016-05-25T07:01:59.317Z,993.71
2016-05-25T07:02:59.695Z,993.67
2016-05-25T07:03:59.338Z,993.66
2016-05-25T07:04:59.341Z,993.69
2016-05-25T07:05:59.359Z,993.67
2016-05-25T07:06:59.361Z,993.66
2016-05-25T07:07:59.364Z,993.67
2016-05-25T07:08:59.383Z,993.7
2016-05-25T07:09:59.385Z,993.63
2016-05-25T07:10:59.388Z,993.64
2016-05-25T07:11:59.391Z,993.65
2016-05-25T07:12:59.409Z,993.65
2016-05-25T07:13:59.412Z,993.66
2016-05-25T07:14:59.415Z,993.66
2016-05-25T07:15:59.464Z,993.7
2016-05-25T07:16:59.435Z,993.67
2016-05-25T07:17:59.938Z,993.74
2016-05-25T07:18:59.457Z,993.71
2016-05-25T07:19:59.459Z,993.69
2016-05-25T07:20:59.493Z,993.7
2016-05-25T07:24:59.520Z,993.77
2016-05-25T07:25:59.506Z,993.8
2016-05-25T07:26:59.728Z,993.78
2016-05-25T07:27:59.528Z,993.78
2016-05-25T07:28:59.717Z,993.81
2016-05-25T07:29:59.580Z,993.83
2016-05-25T07:30:59.583Z,993.87
2016-05-25T07:31:59.554Z,993.91
2016-05-25T07:32:59.556Z,993.9
2016-05-25T07:33:59.559Z,993.91
2016-05-25T07:34:59.578Z,993.87
2016-05-25T07:35:59.580Z,993.87
2016-05-25T07:36:59.584Z,993.93
2016-05-25T07:37:59.586Z,993.95
2016-05-25T07:38:59.605Z,993.97
2016-05-25T07:39:59.607Z,993.91
2016-05-25T07:40:59.625Z,993.93
2016-05-25T07:41:59.627Z,993.95
2016-05-25T07:42:59.630Z,993.89
2016-05-25T07:43:59.633Z,993.86
2016-05-25T07:44:59.652Z,993.85
2016-05-25T07:45:59.670Z,993.93
2016-05-25T07:46:59.673Z,993.9
2016-05-25T07:47:59.769Z,993.91
2016-05-25T07:48:59.678Z,993.91
2016-05-25T07:49:59.728Z,993.91
2016-05-25T07:50:59.699Z,993.87
2016-05-25T07:51:59.702Z,993.87
2016-05-25T07:53:01.407Z,993.89
2016-05-25T07:53:59.707Z,993.89
2016-05-25T07:54:59.741Z,993.81
2016-05-25T07:55:59.729Z,993.82
2016-05-25T07:56:59.746Z,993.84
2016-05-25T07:58:03.217Z,993.88
2016-05-25T07:58:59.752Z,993.88
2016-05-25T07:59:59.754Z,993.87
2016-05-25T08:00:59.803Z,993.91
2016-05-25T08:02:00.009Z,993.92
2016-05-25T08:02:59.778Z,993.93
2016-05-25T08:03:59.797Z,993.91
2016-05-25T08:04:59.800Z,993.91
2016-05-25T08:05:59.833Z,993.91
2016-05-25T08:06:59.820Z,993.9
2016-05-25T08:07:59.839Z,993.96
2016-05-25T08:08:59.841Z,993.91
2016-05-25T08:09:59.844Z,993.91
2016-05-25T08:10:59.847Z,993.92
2016-05-25T08:11:59.850Z,993.92
2016-05-25T08:12:59.883Z,993.91
2016-05-25T08:14:00.104Z,993.98
2016-05-25T08:14:59.888Z,993.95
2016-05-25T08:15:59.891Z,993.95
2016-05-25T08:16:59.910Z,993.95
2016-05-25T08:17:59.913Z,993.95
2016-05-25T08:18:59.915Z,993.97
2016-05-25T08:19:59.933Z,993.95
2016-05-25T08:20:59.921Z,993.93
2016-05-25T08:21:59.938Z,993.99
2016-05-25T08:22:59.973Z,993.97
2016-05-25T08:23:59.960Z,993.91
2016-05-25T08:24:59.962Z,993.94
2016-05-25T08:25:59.981Z,994
2016-05-25T08:26:59.983Z,994
2016-05-25T08:28:25.661Z,993.95
2016-05-25T08:29:00.004Z,993.95
2016-05-25T08:30:00.007Z,993.98
2016-05-25T08:31:00.025Z,993.97
2016-05-25T08:32:00.028Z,994.04
2016-05-25T08:33:00.047Z,994.05
2016-05-25T08:34:00.050Z,994.05
2016-05-25T08:35:00.052Z,994.09
2016-05-25T08:36:00.055Z,994.11
2016-05-25T08:37:00.072Z,994.12
2016-05-25T08:38:00.670Z,994.21
2016-05-25T08:39:00.094Z,994.29
2016-05-25T08:40:00.097Z,994.31
2016-05-25T08:41:00.099Z,994.23
2016-05-25T08:42:00.117Z,994.2
2016-05-25T08:43:00.120Z,994.09
2016-05-25T08:44:00.154Z,994.07
2016-05-25T08:45:00.141Z,994.18
2016-05-25T08:46:00.144Z,994.23
2016-05-25T08:47:00.568Z,994.27
2016-05-25T08:48:00.165Z,994.16
2016-05-25T08:49:00.183Z,994.19
2016-05-25T08:50:00.185Z,994.17
2016-05-25T08:51:00.188Z,994.1
2016-05-25T08:52:00.191Z,994.05
2016-05-25T08:53:00.210Z,994.08
2016-05-25T08:54:00.228Z,994.04
2016-05-25T08:55:00.434Z,994
2016-05-25T08:56:00.249Z,994.04
2016-05-25T08:57:00.251Z,993.97
2016-05-25T08:58:00.270Z,993.95
2016-05-25T08:59:00.273Z,993.92
2016-05-25T09:00:00.276Z,993.89
2016-05-25T09:01:00.293Z,993.94
2016-05-25T09:02:00.625Z,993.97
2016-05-25T09:03:00.315Z,993.91
2016-05-25T09:04:00.317Z,993.91
2016-05-25T09:05:00.335Z,993.92
2016-05-25T09:06:00.339Z,993.94
2016-05-25T09:07:00.341Z,993.88
2016-05-25T09:08:00.359Z,993.95
2016-05-25T09:09:00.362Z,993.98
2016-05-25T09:10:00.411Z,993.97
2016-05-25T09:11:00.383Z,993.95
2016-05-25T09:12:00.386Z,993.93
2016-05-25T09:13:00.405Z,993.92
2016-05-25T09:14:00.407Z,993.91
2016-05-25T09:15:00.425Z,993.92
2016-05-25T09:16:00.428Z,993.95
2016-05-25T09:17:00.447Z,994
2016-05-25T09:18:00.463Z,994.03
2016-05-25T09:19:00.467Z,994.02
2016-05-25T09:20:00.501Z,994.02
2016-05-25T09:21:00.488Z,994.01
2016-05-25T09:22:00.538Z,994.04
2016-05-25T09:23:00.494Z,993.94
2016-05-25T09:24:00.512Z,993.95
2016-05-25T09:25:00.515Z,993.94
2016-05-25T09:26:00.517Z,993.93
2016-05-25T09:27:00.535Z,993.94
2016-05-25T09:28:00.615Z,993.96
2016-05-25T09:29:00.556Z,993.96
2016-05-25T09:30:00.575Z,993.98
2016-05-25T09:31:00.578Z,994.01
2016-05-25T09:32:01.018Z,994.05
2016-05-25T09:33:00.723Z,994.03
2016-05-25T09:34:00.617Z,993.98
2016-05-25T09:35:00.620Z,993.98
2016-05-25T09:36:00.622Z,994.02
2016-05-25T09:37:00.640Z,994.03
2016-05-25T09:38:00.642Z,994.04
2016-05-25T09:39:00.662Z,994.09
2016-05-25T09:40:00.664Z,994.11
2016-05-25T09:41:00.666Z,994.08
2016-05-25T09:43:00.704Z,994.04
2016-05-25T09:44:00.706Z,994.19
2016-05-25T09:45:00.708Z,994.2
2016-05-25T09:46:00.727Z,994.2
2016-05-25T09:47:00.746Z,994.16
2016-05-25T09:48:01.795Z,994.18
2016-05-25T09:49:00.751Z,994.16
2016-05-25T09:50:00.769Z,994.13
2016-05-25T09:51:00.772Z,994.12
2016-05-25T09:52:00.868Z,994.15
2016-05-25T09:53:01.230Z,994.15
2016-05-25T09:54:00.796Z,994.19
2016-05-25T09:55:00.813Z,994.15
2016-05-25T09:56:00.879Z,994.08
2016-05-25T09:57:00.834Z,994.06
2016-05-25T09:58:00.854Z,994.07
2016-05-25T09:59:00.934Z,994.04
2016-05-25T10:00:00.889Z,994.03
2016-05-25T10:01:00.876Z,994.12
2016-05-25T10:02:00.911Z,994.14
2016-05-25T10:03:00.992Z,994.04
2016-05-25T10:04:00.916Z,993.97
2016-05-25T10:05:01.137Z,994.08
2016-05-25T10:06:00.953Z,994.18
2016-05-25T10:07:00.970Z,994.28
2016-05-25T10:08:01.161Z,994.31
2016-05-25T10:09:00.976Z,994.22
2016-05-25T10:10:00.995Z,994.25
2016-05-25T10:11:00.997Z,994.29
2016-05-25T10:12:01.000Z,994.26
2016-05-25T10:13:01.034Z,994.28
2016-05-25T10:14:01.646Z,994.29
2016-05-25T10:15:01.071Z,994.3
2016-05-25T10:16:01.058Z,994.31
2016-05-25T10:17:01.858Z,994.32
2016-05-25T10:18:01.080Z,994.25
2016-05-25T10:19:01.175Z,994.23
2016-05-25T10:20:01.099Z,994.25
2016-05-25T10:21:01.305Z,994.15
2016-05-25T10:22:01.136Z,994.09
2016-05-25T10:23:01.139Z,994.11
2016-05-25T10:24:01.438Z,994.06
2016-05-25T10:25:01.161Z,993.98
2016-05-25T10:26:01.179Z,993.92
2016-05-25T10:27:01.196Z,993.95
2016-05-25T10:28:01.216Z,993.9
2016-05-25T10:29:01.218Z,994
2016-05-25T10:30:01.236Z,994.13
2016-05-25T10:31:01.254Z,994.11
2016-05-25T10:32:01.273Z,994.09
2016-05-25T10:33:01.276Z,994.08
2016-05-25T10:34:01.293Z,994.04
2016-05-25T10:35:01.421Z,994
2016-05-25T10:36:02.581Z,994
2016-05-25T10:37:01.317Z,994.03
2016-05-25T10:38:01.633Z,993.99
2016-05-25T10:39:01.354Z,993.97
2016-05-25T10:40:01.669Z,993.98
2016-05-25T10:41:01.547Z,993.97
2016-05-25T10:42:01.628Z,993.93
2016-05-25T10:43:01.631Z,993.94
2016-05-25T10:44:01.492Z,993.87
2016-05-25T10:45:01.416Z,993.9
2016-05-25T10:46:01.435Z,993.94
2016-05-25T10:47:01.438Z,993.93
2016-05-25T10:48:01.456Z,993.93
2016-05-25T10:49:01.475Z,993.94
2016-05-25T10:50:02.086Z,993.99
2016-05-25T10:51:01.496Z,993.95
2016-05-25T10:52:01.749Z,993.92
2016-05-25T10:53:01.517Z,993.98
2016-05-25T10:54:01.535Z,993.98
2016-05-25T10:55:01.538Z,993.96
2016-05-25T10:56:01.557Z,993.95
2016-05-25T10:57:01.574Z,993.94
2016-05-25T10:58:01.577Z,993.88
2016-05-25T10:59:01.579Z,993.9
2016-05-25T11:00:01.598Z,993.89
2016-05-25T11:01:01.616Z,993.85
2016-05-25T11:02:01.837Z,993.84
2016-05-25T11:03:01.638Z,993.84
2016-05-25T11:04:01.640Z,993.83
2016-05-25T11:05:01.659Z,993.81
2016-05-25T11:06:01.677Z,993.86
2016-05-25T11:07:01.695Z,993.87
2016-05-25T11:08:01.698Z,993.89
2016-05-25T11:09:01.716Z,993.98
2016-05-25T11:10:01.719Z,994.11
2016-05-25T11:11:01.737Z,994.13
2016-05-25T11:12:01.740Z,994.03
2016-05-25T11:13:01.758Z,994.04
2016-05-25T11:14:01.760Z,993.94
2016-05-25T11:15:01.778Z,993.9
2016-05-25T11:16:01.781Z,993.91
2016-05-25T11:17:01.831Z,993.91
2016-05-25T11:18:02.053Z,993.93
2016-05-25T11:19:01.853Z,993.89
2016-05-25T11:20:01.855Z,993.96
2016-05-25T11:21:01.841Z,993.93
2016-05-25T11:22:01.861Z,993.95
2016-05-25T11:23:01.879Z,994
2016-05-25T11:24:01.882Z,994
2016-05-25T11:25:02.446Z,994.01
2016-05-25T11:26:01.919Z,994.02
2016-05-25T11:27:01.936Z,994.01
2016-05-25T11:28:01.938Z,994.06
2016-05-25T11:29:01.941Z,994.09
2016-05-25T11:30:01.960Z,994.09
2016-05-25T11:31:01.978Z,994.04
2016-05-25T11:32:01.981Z,994.04
2016-05-25T11:33:01.999Z,994.06
2016-05-25T11:34:02.002Z,993.99
2016-05-25T11:35:02.021Z,994.02
2016-05-25T11:36:02.070Z,993.93
2016-05-25T11:38:02.076Z,993.81
2016-05-25T11:39:02.312Z,993.81
2016-05-25T11:40:02.096Z,993.84
2016-05-25T11:41:02.099Z,993.8
2016-05-25T11:42:02.117Z,993.78
2016-05-25T11:43:02.136Z,993.8
2016-05-25T11:44:02.138Z,993.87
2016-05-25T11:45:02.156Z,993.83
2016-05-25T11:46:02.159Z,993.79
2016-05-25T11:47:02.381Z,993.76
2016-05-25T11:48:02.197Z,993.74
2016-05-25T11:49:02.214Z,993.75
2016-05-25T11:50:02.217Z,993.78
2016-05-25T11:51:02.235Z,993.85
2016-05-25T11:52:02.457Z,993.9
2016-05-25T11:53:02.256Z,994
2016-05-25T11:54:02.274Z,994
2016-05-25T11:55:02.308Z,994.02
2016-05-25T11:56:02.296Z,993.99
2016-05-25T11:57:02.313Z,993.99
2016-05-25T11:58:02.332Z,993.95
2016-05-25T11:59:02.335Z,993.89
2016-05-25T12:00:02.354Z,993.89
2016-05-25T12:01:02.371Z,993.86
2016-05-25T12:02:02.390Z,993.91
2016-05-25T12:03:02.393Z,993.86
2016-05-25T12:04:02.396Z,993.82
2016-05-25T12:05:02.632Z,993.8
2016-05-25T12:06:02.431Z,993.81
2016-05-25T12:07:02.450Z,993.82
2016-05-25T12:08:02.468Z,993.82
2016-05-25T12:09:02.503Z,993.79
2016-05-25T12:10:02.490Z,993.78
2016-05-25T12:11:02.508Z,993.75
2016-05-25T12:12:02.510Z,993.67
2016-05-25T12:13:02.529Z,993.66
2016-05-25T12:14:02.547Z,993.73
2016-05-25T12:15:02.565Z,993.7
2016-05-25T12:16:02.567Z,993.79
2016-05-25T12:17:02.586Z,993.73
2016-05-25T12:18:02.636Z,993.76
2016-05-25T12:19:02.608Z,993.79
2016-05-25T12:20:02.626Z,993.76
2016-05-25T12:21:02.660Z,993.79
2016-05-25T12:22:02.663Z,993.82
2016-05-25T12:23:02.666Z,993.88
2016-05-25T12:24:02.683Z,993.93
2016-05-25T12:25:02.686Z,993.92
2016-05-25T12:26:02.688Z,993.92
2016-05-25T12:27:02.707Z,993.92
2016-05-25T12:28:02.741Z,993.94
2016-05-25T12:29:02.947Z,993.96
2016-05-25T12:30:02.762Z,994
2016-05-25T12:31:02.780Z,994
2016-05-25T12:32:02.782Z,993.99
2016-05-25T12:33:02.801Z,993.99
2016-05-25T12:34:02.804Z,993.98
2016-05-25T12:35:02.823Z,993.96
2016-05-25T12:36:02.840Z,993.84
2016-05-25T12:37:02.843Z,993.82
2016-05-25T12:38:02.893Z,993.89
2016-05-25T12:39:02.865Z,993.87
2016-05-25T12:40:02.882Z,993.83
2016-05-25T12:41:02.885Z,993.81
2016-05-25T12:42:02.903Z,993.86
2016-05-25T12:43:02.937Z,993.86
2016-05-25T12:44:02.925Z,993.87
2016-05-25T12:45:02.943Z,993.89
2016-05-25T12:46:02.961Z,993.87
2016-05-25T12:47:02.964Z,993.88
2016-05-25T12:48:02.998Z,993.84
2016-05-25T12:50:03.020Z,993.83
2016-05-25T12:51:03.021Z,993.78
2016-05-25T12:53:03.042Z,993.76
2016-05-25T12:54:03.061Z,993.76
2016-05-25T12:55:03.080Z,993.78